createdAt,value
2023-01-17T00:02:45.249Z,1.13
2023-01-17T00:08:05.182Z,1.30
2023-01-17T00:13:06.649Z,1.40
2023-01-17T00:18:08.073Z,1.50
2023-01-17T00:23:40.049Z,1.70
2023-01-17T00:28:42.637Z,1.40
2023-01-17T00:33:44.111Z,1.67
2023-01-17T00:38:45.541Z,2.13
2023-01-17T00:44:05.333Z,1.70
2023-01-17T00:49:25.805Z,2.20
2023-01-17T00:54:45.987Z,2.10
2023-01-17T01:00:06.103Z,2.10
2023-01-17T01:05:26.883Z,2.43
2023-01-17T01:10:47.062Z,2.27
2023-01-17T01:16:07.465Z,2.50
2023-01-17T01:21:27.608Z,2.53
2023-01-17T01:26:47.920Z,2.17
2023-01-17T01:32:07.755Z,2.13
2023-01-17T01:37:09.213Z,2.20
2023-01-17T01:42:15.733Z,1.80
2023-01-17T01:47:30.756Z,2.13
2023-01-17T01:52:35.524Z,2.50
2023-01-17T02:02:44.116Z,2.42
2023-01-17T02:08:02.272Z,2.60
2023-01-17T02:13:04.563Z,2.30
2023-01-17T02:18:08.973Z,2.60
2023-01-17T02:23:39.413Z,2.67
2023-01-17T02:29:11.633Z,2.63
2023-01-17T02:34:23.308Z,3.07
2023-01-17T02:39:32.761Z,3.80
2023-01-17T02:44:43.540Z,2.53
2023-01-17T02:49:45.024Z,3.00
2023-01-17T02:55:14.155Z,3.47
2023-01-17T03:00:25.089Z,3.60
2023-01-17T03:05:33.886Z,3.50
2023-01-17T03:10:36.304Z,3.40
2023-01-17T03:15:39.664Z,3.30
2023-01-17T03:20:41.805Z,3.47
2023-01-17T03:25:43.239Z,3.43
2023-01-17T03:30:44.700Z,3.97
2023-01-17T03:35:46.535Z,4.30
2023-01-17T03:40:48.065Z,3.90
2023-01-17T03:45:54.407Z,4.67
2023-01-17T03:50:55.970Z,4.10
2023-01-17T03:55:57.491Z,5.23
2023-01-17T04:00:59.044Z,5.33
2023-01-17T04:06:00.553Z,6.00
2023-01-17T04:11:02.056Z,6.10
2023-01-17T04:16:03.818Z,6.00
2023-01-17T04:21:05.510Z,5.90
2023-01-17T04:26:07.130Z,6.53
2023-01-17T04:31:15.657Z,7.93
2023-01-17T04:36:18.013Z,9.43
2023-01-17T04:41:19.525Z,8.53
2023-01-17T04:46:21.078Z,10.30
2023-01-17T04:51:22.573Z,10.57
2023-01-17T04:56:24.165Z,11.30
2023-01-17T05:01:25.882Z,12.60
2023-01-17T05:06:27.435Z,11.47
2023-01-17T05:11:28.931Z,12.10
2023-01-17T05:16:30.391Z,12.93
2023-01-17T05:21:32.240Z,15.20
2023-01-17T05:26:33.710Z,14.90
2023-01-17T05:31:35.498Z,16.00
2023-01-17T05:36:36.926Z,16.80
2023-01-17T05:41:38.368Z,15.70
2023-01-17T05:46:39.848Z,18.00
2023-01-17T05:51:41.353Z,17.93
2023-01-17T05:56:42.842Z,16.23
2023-01-17T06:01:44.308Z,13.97
2023-01-17T06:06:45.882Z,11.43
2023-01-17T06:11:47.362Z,5.97
2023-01-17T06:16:48.891Z,2.83
2023-01-17T06:21:50.334Z,0.90
2023-01-17T06:26:51.763Z,0.67
2023-01-17T06:31:53.269Z,0.20
2023-01-17T06:36:54.809Z,0.43
2023-01-17T06:41:56.559Z,0.30
2023-01-17T06:46:58.018Z,0.40
2023-01-17T06:51:59.787Z,0.30
2023-01-17T06:57:01.244Z,0.47
2023-01-17T07:02:02.781Z,0.53
2023-01-17T07:07:04.227Z,1.20
2023-01-17T07:12:05.897Z,0.40
2023-01-17T07:17:07.359Z,0.30
2023-01-17T07:22:10.652Z,0.47
2023-01-17T07:27:12.154Z,1.03
2023-01-17T07:32:13.682Z,0.30
2023-01-17T07:37:15.513Z,0.87
2023-01-17T07:42:17.075Z,0.87
2023-01-17T07:47:18.655Z,0.30
2023-01-17T07:52:20.086Z,0.90
2023-01-17T07:57:21.707Z,0.70
2023-01-17T08:02:23.647Z,0.67
2023-01-17T08:07:25.125Z,0.63
2023-01-17T08:12:26.980Z,0.80
2023-01-17T08:17:28.459Z,1.17
2023-01-17T08:22:30.658Z,1.50
2023-01-17T08:27:32.258Z,1.10
2023-01-17T08:32:34.581Z,1.63
2023-01-17T08:37:37.775Z,1.37
2023-01-17T08:42:40.910Z,1.23
2023-01-17T08:47:42.347Z,1.70
2023-01-17T08:52:43.820Z,2.10
2023-01-17T08:57:45.288Z,1.73
2023-01-17T09:02:46.773Z,0.87
2023-01-17T09:07:48.182Z,0.50
2023-01-17T09:12:50.069Z,0.63
2023-01-17T09:17:55.485Z,0.40
2023-01-17T09:22:57.494Z,1.00
2023-01-17T09:27:58.978Z,0.60
2023-01-17T09:33:00.386Z,0.90
2023-01-17T09:38:01.796Z,0.70
2023-01-17T09:43:07.799Z,0.67
2023-01-17T09:48:17.764Z,0.60
2023-01-17T09:53:23.411Z,1.13
2023-01-17T09:58:43.484Z,1.57
2023-01-17T10:04:15.395Z,1.30
2023-01-17T10:09:45.727Z,0.97
2023-01-17T10:15:11.679Z,1.38
2023-01-17T10:20:50.303Z,1.23
2023-01-17T10:25:55.379Z,0.63
2023-01-17T10:31:06.187Z,1.00
2023-01-17T10:36:15.261Z,1.05
2023-01-17T10:41:22.147Z,1.10
2023-01-17T10:46:32.629Z,1.35
2023-01-17T10:51:59.777Z,1.00
2023-01-17T10:57:01.432Z,1.27
2023-01-17T11:02:09.851Z,1.30
2023-01-17T11:07:18.838Z,0.90
2023-01-17T11:12:37.898Z,0.68
2023-01-17T11:17:49.853Z,0.90
2023-01-17T11:23:12.585Z,0.93
2023-01-17T11:28:26.030Z,0.95
2023-01-17T11:33:45.358Z,1.27
2023-01-17T11:39:05.083Z,0.70
2023-01-17T11:44:27.951Z,0.80
2023-01-17T11:49:29.443Z,0.90
2023-01-17T11:54:39.530Z,0.60
2023-01-17T11:59:43.220Z,0.93
2023-01-17T12:05:11.139Z,1.00
2023-01-17T12:10:27.825Z,1.00
2023-01-17T12:16:30.136Z,0.75
2023-01-17T12:21:49.781Z,0.52
2023-01-17T12:27:06.249Z,0.82
2023-01-17T12:32:13.344Z,0.40
2023-01-17T12:37:34.350Z,0.47
2023-01-17T12:42:40.681Z,0.30
2023-01-17T12:47:48.873Z,0.60
2023-01-17T12:53:09.862Z,0.80
2023-01-17T12:58:19.355Z,0.70
2023-01-17T13:04:03.124Z,0.50
2023-01-17T13:09:05.677Z,0.57
2023-01-17T13:14:10.013Z,1.02
2023-01-17T13:19:21.528Z,0.77
2023-01-17T13:24:32.707Z,0.63
2023-01-17T13:29:48.921Z,0.68
2023-01-17T13:35:27.652Z,0.30
2023-01-17T13:40:37.036Z,0.93
2023-01-17T13:45:39.400Z,0.43
2023-01-17T13:50:40.859Z,0.63
2023-01-17T13:55:50.512Z,0.88
2023-01-17T14:00:52.223Z,0.60
2023-01-17T14:05:57.010Z,0.73
2023-01-17T14:16:22.114Z,0.83
2023-01-17T14:21:27.063Z,0.60
2023-01-17T14:26:54.466Z,0.80
2023-01-17T14:32:05.417Z,0.70
2023-01-17T14:37:17.635Z,0.70
2023-01-17T14:42:23.568Z,1.00
2023-01-17T14:47:28.274Z,0.70
2023-01-17T14:57:31.166Z,1.10
2023-01-17T15:02:32.936Z,0.70
2023-01-17T15:07:36.970Z,1.10
2023-01-17T15:12:38.789Z,1.40
2023-01-17T15:17:40.296Z,1.20
2023-01-17T15:22:42.004Z,1.80
2023-01-17T15:27:43.632Z,1.53
2023-01-17T15:32:49.160Z,1.67
2023-01-17T15:37:54.818Z,1.50
2023-01-17T15:43:01.029Z,3.40
2023-01-17T15:48:41.392Z,1.60
2023-01-17T15:53:43.136Z,0.80
2023-01-17T15:58:44.955Z,1.30
2023-01-17T16:03:54.776Z,0.80
2023-01-17T16:08:56.290Z,0.73
2023-01-17T16:13:57.812Z,1.17
2023-01-17T16:19:01.877Z,0.77
2023-01-17T16:24:03.555Z,0.60
2023-01-17T16:29:05.053Z,1.07
2023-01-17T16:34:14.167Z,1.30
2023-01-17T16:39:15.693Z,1.17
2023-01-17T16:44:17.184Z,1.63
2023-01-17T16:49:18.939Z,1.83
2023-01-17T16:54:20.502Z,2.80
2023-01-17T16:59:22.067Z,2.23
2023-01-17T17:04:23.571Z,3.30
2023-01-17T17:09:25.095Z,3.57
2023-01-17T17:14:26.874Z,2.27
2023-01-17T17:19:28.361Z,3.37
2023-01-17T17:24:29.897Z,3.73
2023-01-17T17:29:31.377Z,4.10
2023-01-17T17:34:34.919Z,4.10
2023-01-17T17:39:36.580Z,3.20
2023-01-17T17:44:38.021Z,1.93
2023-01-17T17:49:39.877Z,2.80
2023-01-17T17:54:41.293Z,4.30
2023-01-17T17:59:42.773Z,5.43
2023-01-17T18:04:44.270Z,5.87
2023-01-17T18:09:46.867Z,3.13
2023-01-17T18:14:48.309Z,3.07
2023-01-17T18:19:49.884Z,3.00
2023-01-17T18:24:51.413Z,2.53
2023-01-17T18:30:05.856Z,1.60
2023-01-17T18:40:09.802Z,2.00
2023-01-17T18:45:11.394Z,2.87
2023-01-17T18:50:12.922Z,2.97
2023-01-17T18:55:14.597Z,3.50
2023-01-17T19:00:16.401Z,2.20
2023-01-17T19:05:21.431Z,3.00
2023-01-17T19:10:22.842Z,4.27
2023-01-17T19:15:24.311Z,3.73
2023-01-17T19:20:25.755Z,4.33
2023-01-17T19:25:27.786Z,3.33
2023-01-17T19:30:29.557Z,2.50
2023-01-17T19:35:30.989Z,3.23
2023-01-17T19:40:32.566Z,3.03
2023-01-17T19:45:34.058Z,4.60
2023-01-17T19:50:35.550Z,2.60
2023-01-17T19:55:39.363Z,2.53
2023-01-17T20:00:46.537Z,3.07
2023-01-17T20:05:56.097Z,2.03
2023-01-17T20:11:13.405Z,1.90
2023-01-17T20:16:17.046Z,2.00
2023-01-17T20:21:21.051Z,1.97
2023-01-17T20:26:25.320Z,3.15
2023-01-17T20:31:28.529Z,2.22
2023-01-17T20:36:30.209Z,2.03
2023-01-17T20:41:34.836Z,2.60
2023-01-17T20:51:44.316Z,2.10
2023-01-17T20:56:47.523Z,2.47
2023-01-17T21:01:49.770Z,2.40
2023-01-17T21:06:53.108Z,2.17
2023-01-17T21:12:00.805Z,2.53
2023-01-17T21:17:02.264Z,3.47
2023-01-17T21:22:05.539Z,3.50
2023-01-17T21:27:07.073Z,2.00
2023-01-17T21:32:08.634Z,2.50
2023-01-17T21:37:10.135Z,2.73
2023-01-17T21:42:11.644Z,2.97
2023-01-17T21:47:13.074Z,2.57
2023-01-17T21:52:17.400Z,2.60
2023-01-17T21:57:39.405Z,2.50
2023-01-17T22:02:41.259Z,3.10
2023-01-17T22:08:02.843Z,2.97
2023-01-17T22:13:04.246Z,3.70
2023-01-17T22:18:06.210Z,3.63
2023-01-17T22:23:11.783Z,3.30
2023-01-17T22:28:13.675Z,2.57
2023-01-17T22:33:15.097Z,3.33
2023-01-17T22:38:16.550Z,3.10
2023-01-17T22:43:18.034Z,3.10
2023-01-17T22:48:19.489Z,3.00
2023-01-17T22:53:20.961Z,3.67
2023-01-17T22:58:23.018Z,3.20
2023-01-17T23:03:24.671Z,3.30
2023-01-17T23:08:26.196Z,3.70
2023-01-17T23:13:27.707Z,3.03
2023-01-17T23:18:47.406Z,3.53
2023-01-17T23:23:48.895Z,3.23
2023-01-17T23:28:50.360Z,3.67
2023-01-17T23:33:51.770Z,3.80
2023-01-17T23:38:53.217Z,2.97
2023-01-17T23:43:56.724Z,3.20
2023-01-17T23:48:58.258Z,2.70
2023-01-17T23:54:05.457Z,3.40
2023-01-17T23:59:07.160Z,3.20
